createdAt,value
2023-05-23T00:02:13.361Z,74.20
2023-05-23T00:04:40.547Z,74.10
2023-05-23T00:07:07.918Z,74.30
2023-05-23T00:09:37.630Z,74.40
2023-05-23T00:12:04.677Z,74.40
2023-05-23T00:14:33.987Z,74.50
2023-05-23T00:17:01.643Z,74.50
2023-05-23T00:19:28.744Z,74.50
2023-05-23T00:22:01.567Z,74.60
2023-05-23T00:24:28.511Z,74.60
2023-05-23T00:26:55.315Z,74.70
2023-05-23T00:29:22.281Z,74.70
2023-05-23T00:31:49.867Z,74.70
2023-05-23T00:34:19.982Z,74.80
2023-05-23T00:36:54.246Z,74.90
2023-05-23T00:39:21.680Z,74.90
2023-05-23T00:41:53.184Z,74.90
2023-05-23T00:44:21.575Z,74.90
2023-05-23T00:46:53.708Z,74.90
2023-05-23T00:49:21.335Z,75.00
2023-05-23T00:51:52.175Z,75.10
2023-05-23T00:54:24.424Z,75.10
2023-05-23T00:56:51.475Z,75.10
2023-05-23T00:59:18.517Z,75.00
2023-05-23T01:01:47.435Z,74.90
2023-05-23T01:04:16.862Z,75.00
2023-05-23T01:06:46.992Z,75.00
2023-05-23T01:09:18.061Z,75.00
2023-05-23T01:11:54.786Z,75.10
2023-05-23T01:14:29.123Z,75.20
2023-05-23T01:17:13.716Z,75.10
2023-05-23T01:20:00.464Z,75.10
2023-05-23T01:22:49.475Z,75.10
2023-05-23T01:25:16.307Z,75.10
2023-05-23T01:27:43.057Z,75.20
2023-05-23T01:30:11.824Z,75.30
2023-05-23T01:32:40.258Z,75.50
2023-05-23T01:35:07.972Z,75.50
2023-05-23T01:37:34.776Z,75.60
2023-05-23T01:40:02.299Z,75.60
2023-05-23T01:42:29.619Z,75.70
2023-05-23T01:44:59.346Z,75.80
2023-05-23T01:47:27.283Z,76.00
2023-05-23T01:49:55.523Z,75.90
2023-05-23T01:52:23.426Z,76.00
2023-05-23T01:54:51.398Z,75.90
2023-05-23T01:57:19.591Z,75.90
2023-05-23T01:59:47.147Z,75.90
2023-05-23T02:02:14.107Z,75.80
2023-05-23T02:04:40.933Z,75.80
2023-05-23T02:07:07.853Z,75.70
2023-05-23T02:09:34.708Z,75.60
2023-05-23T02:12:01.549Z,75.70
2023-05-23T02:14:28.569Z,75.70
2023-05-23T02:16:58.210Z,75.60
2023-05-23T02:19:25.198Z,75.60
2023-05-23T02:21:52.072Z,75.50
2023-05-23T02:24:18.965Z,75.50
2023-05-23T02:26:45.884Z,75.50
2023-05-23T02:29:12.745Z,75.50
2023-05-23T02:31:39.754Z,75.60
2023-05-23T02:34:06.686Z,75.50
2023-05-23T02:36:34.220Z,75.50
2023-05-23T02:39:01.189Z,75.50
2023-05-23T02:41:27.945Z,75.50
2023-05-23T02:43:55.116Z,75.60
2023-05-23T02:46:22.077Z,75.60
2023-05-23T02:48:49.006Z,75.70
2023-05-23T02:51:16.160Z,75.70
2023-05-23T02:53:42.991Z,75.60
2023-05-23T02:56:09.942Z,75.60
2023-05-23T02:58:37.073Z,75.70
2023-05-23T03:01:06.406Z,75.60
2023-05-23T03:03:34.828Z,75.60
2023-05-23T03:06:05.120Z,75.70
2023-05-23T03:08:32.229Z,75.70
2023-05-23T03:11:01.649Z,75.70
2023-05-23T03:13:29.288Z,75.70
2023-05-23T03:15:58.739Z,75.80
2023-05-23T03:18:25.574Z,75.80
2023-05-23T03:20:52.346Z,75.80
2023-05-23T03:23:19.305Z,75.90
2023-05-23T03:25:46.245Z,75.90
2023-05-23T03:28:13.284Z,75.80
2023-05-23T03:30:40.193Z,75.90
2023-05-23T03:33:07.548Z,75.80
2023-05-23T03:35:34.501Z,75.80
2023-05-23T03:38:01.443Z,75.80
2023-05-23T03:40:28.213Z,75.90
2023-05-23T03:43:05.566Z,76.00
2023-05-23T03:45:33.718Z,76.10
2023-05-23T03:48:01.153Z,76.00
2023-05-23T03:50:28.323Z,76.10
2023-05-23T03:52:56.410Z,76.10
2023-05-23T03:55:25.529Z,76.00
2023-05-23T03:57:52.500Z,76.10
2023-05-23T04:00:22.529Z,76.00
2023-05-23T04:02:52.021Z,76.00
2023-05-23T04:05:19.295Z,77.00
2023-05-23T04:07:46.429Z,76.20
2023-05-23T04:10:13.255Z,76.30
2023-05-23T04:12:41.804Z,76.30
2023-05-23T04:15:09.442Z,76.30
2023-05-23T04:17:38.996Z,76.30
2023-05-23T04:20:10.244Z,76.30
2023-05-23T04:22:37.244Z,76.70
2023-05-23T04:25:04.378Z,76.30
2023-05-23T04:27:31.262Z,76.30
2023-05-23T04:29:58.770Z,76.30
2023-05-23T04:32:26.234Z,76.30
2023-05-23T04:34:53.221Z,76.40
2023-05-23T04:37:26.160Z,76.40
2023-05-23T04:39:53.717Z,76.30
2023-05-23T04:42:25.010Z,76.30
2023-05-23T04:44:58.259Z,76.50
2023-05-23T04:47:28.967Z,76.50
2023-05-23T04:49:57.454Z,76.40
2023-05-23T04:52:25.502Z,76.30
2023-05-23T04:54:54.175Z,76.20
2023-05-23T04:57:22.110Z,76.20
2023-05-23T04:59:48.880Z,76.00
2023-05-23T05:02:15.892Z,76.00
2023-05-23T05:04:42.841Z,76.00
2023-05-23T05:07:09.652Z,75.90
2023-05-23T05:09:37.196Z,75.90
2023-05-23T05:12:04.108Z,75.80
2023-05-23T05:14:31.280Z,76.00
2023-05-23T05:17:02.842Z,76.00
2023-05-23T05:19:29.983Z,76.00
2023-05-23T05:22:02.383Z,75.90
2023-05-23T05:24:29.861Z,75.80
2023-05-23T05:26:56.888Z,75.80
2023-05-23T05:29:24.006Z,75.90
2023-05-23T05:31:52.124Z,75.70
2023-05-23T05:34:19.045Z,75.70
2023-05-23T05:36:48.112Z,75.60
2023-05-23T05:39:15.183Z,75.70
2023-05-23T05:41:42.229Z,75.70
2023-05-23T05:44:09.883Z,75.70
2023-05-23T05:46:36.730Z,75.70
2023-05-23T05:49:03.597Z,75.80
2023-05-23T05:51:31.596Z,75.70
2023-05-23T05:53:58.832Z,75.60
2023-05-23T05:56:28.894Z,75.60
2023-05-23T05:58:55.678Z,75.60
2023-05-23T06:01:26.864Z,75.60
2023-05-23T06:03:56.832Z,75.60
2023-05-23T06:06:26.838Z,75.60
2023-05-23T06:08:53.673Z,75.60
2023-05-23T06:11:20.483Z,75.50
2023-05-23T06:13:47.323Z,75.60
2023-05-23T06:16:15.380Z,75.60
2023-05-23T06:18:42.317Z,75.30
2023-05-23T06:21:10.019Z,75.30
2023-05-23T06:23:36.861Z,75.30
2023-05-23T06:26:04.058Z,75.20
2023-05-23T06:28:30.950Z,75.20
2023-05-23T06:30:57.714Z,75.10
2023-05-23T06:33:24.478Z,75.10
2023-05-23T06:35:51.350Z,75.10
2023-05-23T06:38:18.198Z,74.90
2023-05-23T06:40:45.376Z,74.80
2023-05-23T06:43:12.139Z,74.60
2023-05-23T06:45:39.024Z,74.50
2023-05-23T06:48:06.265Z,74.30
2023-05-23T06:50:33.143Z,74.10
2023-05-23T06:52:59.910Z,74.00
2023-05-23T06:55:28.292Z,74.30
2023-05-23T06:57:55.218Z,73.40
2023-05-23T07:00:22.154Z,73.10
2023-05-23T07:02:48.980Z,72.60
2023-05-23T07:05:16.457Z,72.10
2023-05-23T07:07:43.835Z,72.00
2023-05-23T07:10:10.950Z,72.10
2023-05-23T07:12:40.586Z,71.80
2023-05-23T07:15:07.984Z,71.20
2023-05-23T07:17:36.444Z,71.00
2023-05-23T07:20:04.667Z,71.00
2023-05-23T07:22:34.232Z,71.00
2023-05-23T07:25:01.215Z,71.80
2023-05-23T07:27:28.875Z,70.60
2023-05-23T07:29:57.504Z,70.50
2023-05-23T07:32:24.339Z,70.70
2023-05-23T07:34:54.304Z,70.50
2023-05-23T07:37:21.094Z,70.50
2023-05-23T07:39:47.914Z,70.60
2023-05-23T07:42:14.865Z,70.60
2023-05-23T07:44:44.219Z,70.60
2023-05-23T07:47:11.139Z,70.70
2023-05-23T07:49:43.127Z,70.70
2023-05-23T07:52:10.021Z,70.70
2023-05-23T07:54:36.852Z,70.50
2023-05-23T07:57:03.968Z,70.50
2023-05-23T07:59:30.728Z,70.50
2023-05-23T08:01:57.519Z,70.50
2023-05-23T08:04:24.944Z,70.50
2023-05-23T08:07:03.629Z,70.50
2023-05-23T08:09:34.498Z,70.70
2023-05-23T08:12:01.495Z,70.80
2023-05-23T08:14:38.603Z,70.70
2023-05-23T08:17:15.748Z,70.80
2023-05-23T08:19:42.714Z,70.80
2023-05-23T08:22:09.583Z,70.80
2023-05-23T08:24:36.499Z,70.90
2023-05-23T08:27:03.382Z,71.10
2023-05-23T08:29:30.249Z,71.20
2023-05-23T08:31:57.594Z,71.20
2023-05-23T08:34:24.613Z,71.30
2023-05-23T08:36:52.638Z,71.10
2023-05-23T08:39:19.455Z,70.90
2023-05-23T08:41:54.072Z,70.80
2023-05-23T08:44:20.925Z,70.80
2023-05-23T08:46:49.922Z,70.90
2023-05-23T08:49:18.493Z,71.20
2023-05-23T08:51:47.094Z,70.90
2023-05-23T08:54:17.036Z,70.70
2023-05-23T08:56:44.148Z,70.30
2023-05-23T08:59:13.033Z,70.00
2023-05-23T09:01:41.416Z,69.60
2023-05-23T09:04:08.763Z,69.00
2023-05-23T09:06:35.666Z,68.90
2023-05-23T09:09:03.068Z,68.80
2023-05-23T09:11:30.176Z,68.80
2023-05-23T09:13:57.883Z,68.70
2023-05-23T09:16:31.870Z,68.40
2023-05-23T09:18:59.013Z,68.30
2023-05-23T09:21:28.131Z,67.90
2023-05-23T09:23:55.870Z,67.50
2023-05-23T09:26:22.927Z,67.00
2023-05-23T09:28:49.881Z,66.70
2023-05-23T09:31:16.825Z,67.00
2023-05-23T09:33:47.383Z,66.90
2023-05-23T09:36:14.446Z,66.50
2023-05-23T09:38:42.785Z,66.20
2023-05-23T09:41:13.455Z,65.90
2023-05-23T09:43:49.710Z,65.10
2023-05-23T09:46:16.621Z,64.70
2023-05-23T09:48:51.833Z,65.00
2023-05-23T09:51:23.065Z,65.20
2023-05-23T09:53:52.230Z,64.90
2023-05-23T09:56:22.339Z,64.30
2023-05-23T09:58:50.678Z,63.40
2023-05-23T10:01:18.275Z,62.60
2023-05-23T10:03:50.544Z,61.80
2023-05-23T10:06:45.230Z,61.50
2023-05-23T10:09:19.097Z,61.80
2023-05-23T10:12:13.984Z,60.80
2023-05-23T10:14:48.685Z,61.10
2023-05-23T10:17:41.746Z,59.90
2023-05-23T10:20:15.005Z,59.80
2023-05-23T10:22:43.065Z,59.00
2023-05-23T10:25:10.523Z,58.60
2023-05-23T10:27:41.256Z,58.50
2023-05-23T10:30:09.273Z,58.80
2023-05-23T10:32:38.905Z,57.80
2023-05-23T10:35:32.337Z,57.70
2023-05-23T10:38:13.932Z,57.70
2023-05-23T10:41:04.076Z,57.10
2023-05-23T10:43:52.903Z,56.50
2023-05-23T10:46:22.957Z,56.20
2023-05-23T10:48:57.344Z,56.30
2023-05-23T10:51:25.025Z,56.30
2023-05-23T10:53:54.738Z,56.70
2023-05-23T10:56:24.005Z,56.50
2023-05-23T10:58:57.980Z,56.00
2023-05-23T11:01:25.530Z,56.00
2023-05-23T11:03:55.655Z,55.90
2023-05-23T11:06:32.956Z,55.60
2023-05-23T11:09:09.656Z,55.70
2023-05-23T11:12:06.642Z,55.10
2023-05-23T11:14:34.662Z,55.60
2023-05-23T11:17:17.147Z,55.40
2023-05-23T11:20:07.261Z,55.50
2023-05-23T11:22:34.964Z,55.40
2023-05-23T11:25:08.408Z,54.70
2023-05-23T11:27:38.511Z,54.50
2023-05-23T11:30:16.683Z,54.20
2023-05-23T11:32:54.464Z,54.80
2023-05-23T11:35:21.708Z,54.40
2023-05-23T11:37:49.047Z,54.30
2023-05-23T11:40:35.933Z,53.70
2023-05-23T11:43:05.256Z,53.90
2023-05-23T11:45:33.907Z,53.50
2023-05-23T11:48:14.872Z,53.00
2023-05-23T11:50:46.074Z,52.50
2023-05-23T11:53:14.045Z,52.30
2023-05-23T11:55:48.477Z,52.30
2023-05-23T11:58:15.436Z,52.60
2023-05-23T12:00:46.266Z,53.00
2023-05-23T12:03:13.488Z,52.90
2023-05-23T12:05:43.876Z,52.70
2023-05-23T12:08:15.995Z,52.30
2023-05-23T12:10:56.076Z,52.00
2023-05-23T12:13:31.168Z,51.80
2023-05-23T12:16:02.708Z,52.40
2023-05-23T12:18:31.563Z,51.50
2023-05-23T12:21:06.658Z,51.60
2023-05-23T12:23:35.202Z,51.20
2023-05-23T12:26:08.803Z,51.20
2023-05-23T12:28:45.045Z,51.40
2023-05-23T12:31:19.009Z,51.20
2023-05-23T12:33:48.095Z,51.60
2023-05-23T12:36:21.805Z,51.70
2023-05-23T12:38:49.293Z,51.20
2023-05-23T12:41:19.937Z,50.80
2023-05-23T12:43:52.384Z,51.30
2023-05-23T12:46:20.605Z,51.50
2023-05-23T12:48:47.584Z,51.30
2023-05-23T12:51:15.214Z,50.70
2023-05-23T12:53:44.473Z,50.30
2023-05-23T12:56:11.568Z,50.70
2023-05-23T12:58:41.414Z,50.70
2023-05-23T13:01:08.369Z,50.70
2023-05-23T13:03:35.323Z,50.60
2023-05-23T13:06:05.301Z,50.70
2023-05-23T13:08:32.222Z,51.10
2023-05-23T13:10:59.144Z,50.90
2023-05-23T13:13:26.922Z,50.80
2023-05-23T13:15:53.770Z,50.70
2023-05-23T13:18:20.970Z,50.50
2023-05-23T13:20:47.914Z,50.20
2023-05-23T13:23:14.831Z,50.00
2023-05-23T13:25:44.761Z,49.80
2023-05-23T13:28:11.756Z,49.90
2023-05-23T13:30:38.816Z,50.00
2023-05-23T13:33:05.851Z,50.00
2023-05-23T13:35:32.716Z,49.70
2023-05-23T13:37:59.728Z,49.40
2023-05-23T13:40:26.684Z,49.30
2023-05-23T13:42:53.687Z,49.20
2023-05-23T13:45:22.734Z,49.50
2023-05-23T13:47:49.893Z,49.90
2023-05-23T13:50:17.287Z,50.00
2023-05-23T13:52:49.107Z,50.00
2023-05-23T13:55:17.401Z,49.80
2023-05-23T13:57:45.243Z,49.80
2023-05-23T14:00:12.701Z,50.10
2023-05-23T14:02:39.617Z,49.80
2023-05-23T14:05:08.221Z,49.70
2023-05-23T14:07:35.535Z,49.40
2023-05-23T14:10:02.453Z,49.20
2023-05-23T14:12:29.863Z,49.40
2023-05-23T14:14:56.742Z,49.20
2023-05-23T14:17:23.996Z,49.40
2023-05-23T14:19:51.202Z,49.70
2023-05-23T14:22:18.103Z,49.90
2023-05-23T14:24:47.796Z,49.50
2023-05-23T14:27:18.535Z,48.90
2023-05-23T14:29:46.852Z,48.30
2023-05-23T14:32:14.106Z,48.30
2023-05-23T14:34:41.600Z,48.40
2023-05-23T14:37:08.461Z,48.40
2023-05-23T14:39:36.098Z,48.70
2023-05-23T14:42:03.169Z,48.70
2023-05-23T14:44:30.235Z,48.70
2023-05-23T14:46:57.027Z,48.40
2023-05-23T14:49:23.915Z,47.80
2023-05-23T14:51:51.410Z,47.70
2023-05-23T14:54:19.113Z,47.60
2023-05-23T14:56:46.178Z,47.40
2023-05-23T14:59:13.130Z,47.40
2023-05-23T15:01:40.939Z,47.70
2023-05-23T15:04:09.426Z,47.90
2023-05-23T15:06:38.208Z,48.20
2023-05-23T15:09:05.294Z,47.60
2023-05-23T15:11:33.160Z,47.50
2023-05-23T15:14:00.158Z,47.50
2023-05-23T15:16:27.230Z,47.50
2023-05-23T15:18:54.319Z,47.00
2023-05-23T15:21:21.337Z,47.20
2023-05-23T15:23:48.256Z,47.20
2023-05-23T15:26:15.221Z,47.20
2023-05-23T15:28:42.032Z,47.20
2023-05-23T15:31:08.818Z,47.30
2023-05-23T15:33:35.768Z,47.60
2023-05-23T15:36:02.710Z,47.60
2023-05-23T15:38:29.459Z,47.40
2023-05-23T15:40:56.841Z,47.20
2023-05-23T15:43:25.133Z,47.30
2023-05-23T15:45:52.491Z,47.20
2023-05-23T15:48:19.843Z,47.30
2023-05-23T15:50:46.722Z,47.70
2023-05-23T15:53:13.518Z,47.60
2023-05-23T15:55:42.413Z,47.40
2023-05-23T15:58:10.560Z,47.60
2023-05-23T16:00:37.619Z,47.70
2023-05-23T16:03:04.891Z,47.50
2023-05-23T16:05:31.747Z,47.10
2023-05-23T16:07:58.583Z,46.90
2023-05-23T16:10:25.704Z,46.40
2023-05-23T16:12:52.814Z,46.70
2023-05-23T16:15:19.625Z,47.80
2023-05-23T16:17:46.585Z,47.70
2023-05-23T16:20:13.489Z,47.20
2023-05-23T16:22:41.517Z,47.60
2023-05-23T16:25:10.616Z,47.90
2023-05-23T16:27:37.819Z,48.10
2023-05-23T16:30:06.288Z,48.20
2023-05-23T16:32:34.338Z,48.00
2023-05-23T16:35:01.549Z,47.60
2023-05-23T16:37:31.131Z,47.60
2023-05-23T16:39:58.075Z,47.50
2023-05-23T16:42:24.942Z,47.70
2023-05-23T16:44:51.746Z,48.20
2023-05-23T16:47:18.975Z,47.80
2023-05-23T16:49:45.877Z,47.70
2023-05-23T16:52:12.750Z,47.40
2023-05-23T16:54:39.707Z,47.20
2023-05-23T16:57:06.816Z,47.10
2023-05-23T16:59:33.885Z,46.70
2023-05-23T17:02:00.795Z,46.80
2023-05-23T17:04:27.710Z,46.30
2023-05-23T17:06:54.597Z,46.40
2023-05-23T17:09:22.872Z,46.60
2023-05-23T17:11:50.125Z,46.80
2023-05-23T17:14:17.493Z,47.00
2023-05-23T17:16:44.406Z,47.10
2023-05-23T17:19:11.247Z,47.20
2023-05-23T17:21:38.185Z,47.20
2023-05-23T17:24:05.275Z,47.20
2023-05-23T17:26:32.140Z,47.20
2023-05-23T17:28:58.967Z,47.50
2023-05-23T17:31:26.261Z,47.50
2023-05-23T17:33:54.098Z,48.10
2023-05-23T17:36:21.092Z,47.20
2023-05-23T17:38:47.932Z,47.20
2023-05-23T17:41:15.449Z,47.20
2023-05-23T17:43:43.035Z,47.20
2023-05-23T17:46:10.007Z,47.20
2023-05-23T17:48:47.097Z,46.90
2023-05-23T17:51:15.730Z,46.80
2023-05-23T17:53:42.940Z,47.00
2023-05-23T17:56:12.940Z,47.20
2023-05-23T17:58:41.064Z,47.90
2023-05-23T18:01:09.412Z,47.70
2023-05-23T18:03:38.662Z,47.90
2023-05-23T18:06:05.795Z,47.90
2023-05-23T18:08:32.545Z,48.00
2023-05-23T18:10:59.387Z,48.20
2023-05-23T18:13:26.487Z,48.70
2023-05-23T18:15:53.191Z,48.70
2023-05-23T18:18:20.072Z,48.60
2023-05-23T18:20:47.270Z,48.20
2023-05-23T18:23:14.141Z,48.10
2023-05-23T18:25:41.115Z,48.10
2023-05-23T18:28:08.152Z,48.20
2023-05-23T18:30:35.032Z,48.40
2023-05-23T18:33:02.070Z,48.50
2023-05-23T18:35:29.751Z,48.40
2023-05-23T18:37:56.779Z,48.50
2023-05-23T18:40:27.177Z,48.70
2023-05-23T18:42:56.950Z,48.90
2023-05-23T18:45:23.814Z,49.20
2023-05-23T18:47:50.799Z,49.50
2023-05-23T18:50:18.704Z,49.80
2023-05-23T18:52:48.748Z,50.10
2023-05-23T18:55:16.555Z,50.40
2023-05-23T18:57:46.475Z,50.40
2023-05-23T19:00:17.571Z,50.60
2023-05-23T19:02:48.353Z,50.60
2023-05-23T19:05:15.791Z,50.70
2023-05-23T19:07:42.721Z,50.90
2023-05-23T19:10:09.940Z,51.00
2023-05-23T19:12:39.484Z,51.00
2023-05-23T19:15:10.682Z,51.20
2023-05-23T19:17:41.789Z,51.40
2023-05-23T19:20:19.958Z,51.40
2023-05-23T19:22:51.474Z,51.60
2023-05-23T19:25:20.209Z,51.80
2023-05-23T19:27:47.159Z,51.80
2023-05-23T19:30:14.170Z,51.80
2023-05-23T19:32:41.242Z,52.00
2023-05-23T19:35:08.493Z,52.20
2023-05-23T19:37:38.772Z,52.30
2023-05-23T19:40:06.241Z,52.50
2023-05-23T19:42:33.080Z,52.60
2023-05-23T19:44:59.838Z,52.60
2023-05-23T19:47:28.544Z,52.70
2023-05-23T19:49:57.101Z,52.80
2023-05-23T19:52:24.017Z,52.90
2023-05-23T19:54:50.772Z,53.10
2023-05-23T19:57:19.951Z,53.20
2023-05-23T19:59:46.855Z,53.40
2023-05-23T20:02:13.642Z,53.50
2023-05-23T20:04:40.933Z,53.50
2023-05-23T20:07:07.699Z,53.70
2023-05-23T20:09:34.483Z,53.80
2023-05-23T20:12:01.450Z,54.00
2023-05-23T20:14:30.023Z,54.10
2023-05-23T20:16:56.860Z,54.10
2023-05-23T20:19:23.835Z,54.10
2023-05-23T20:21:50.700Z,54.10
2023-05-23T20:24:18.760Z,54.10
2023-05-23T20:26:46.707Z,54.20
2023-05-23T20:29:13.526Z,54.30
2023-05-23T20:31:40.337Z,54.50
2023-05-23T20:34:07.213Z,54.50
2023-05-23T20:36:34.282Z,54.70
2023-05-23T20:39:01.601Z,54.70
2023-05-23T20:41:29.693Z,54.90
2023-05-23T20:43:56.644Z,55.10
2023-05-23T20:46:23.557Z,55.20
2023-05-23T20:48:50.718Z,55.20
2023-05-23T20:51:17.856Z,55.40
2023-05-23T20:53:44.806Z,55.50
2023-05-23T20:56:13.902Z,55.50
2023-05-23T20:58:43.009Z,55.50
2023-05-23T21:01:09.851Z,55.70
2023-05-23T21:03:36.961Z,55.60
2023-05-23T21:06:03.880Z,55.70
2023-05-23T21:08:32.353Z,55.80
2023-05-23T21:11:00.579Z,55.90
2023-05-23T21:13:27.696Z,55.80
2023-05-23T21:15:54.606Z,55.90
2023-05-23T21:18:22.456Z,56.00
2023-05-23T21:20:50.638Z,56.20
2023-05-23T21:23:17.386Z,56.30
2023-05-23T21:25:44.221Z,56.30
2023-05-23T21:28:11.246Z,56.30
2023-05-23T21:30:38.649Z,56.30
2023-05-23T21:33:06.007Z,56.30
2023-05-23T21:35:32.889Z,56.30
2023-05-23T21:37:59.861Z,56.60
2023-05-23T21:40:27.835Z,56.60
2023-05-23T21:42:54.633Z,56.80
2023-05-23T21:45:21.618Z,56.80
2023-05-23T21:47:48.598Z,56.90
2023-05-23T21:50:15.378Z,56.90
2023-05-23T21:52:42.262Z,57.00
2023-05-23T21:55:09.090Z,57.30
2023-05-23T21:57:36.026Z,57.20
2023-05-23T22:00:04.686Z,57.30
2023-05-23T22:02:33.177Z,57.40
2023-05-23T22:05:00.161Z,57.60
2023-05-23T22:07:27.396Z,57.50
2023-05-23T22:09:56.230Z,57.70
2023-05-23T22:12:23.124Z,57.70
2023-05-23T22:14:50.067Z,57.80
2023-05-23T22:17:17.870Z,57.80
2023-05-23T22:19:51.971Z,57.80
2023-05-23T22:22:19.390Z,58.10
2023-05-23T22:24:46.338Z,57.90
2023-05-23T22:27:13.193Z,57.90
2023-05-23T22:29:40.030Z,58.00
2023-05-23T22:32:07.083Z,58.20
2023-05-23T22:34:34.270Z,58.20
2023-05-23T22:37:02.436Z,58.30
2023-05-23T22:39:37.959Z,58.40
2023-05-23T22:42:05.259Z,58.50
2023-05-23T22:44:32.232Z,58.60
2023-05-23T22:47:00.113Z,58.40
2023-05-23T22:49:30.219Z,58.60
2023-05-23T22:51:57.818Z,58.70
2023-05-23T22:54:24.844Z,58.70
2023-05-23T22:56:51.774Z,58.70
2023-05-23T22:59:18.622Z,58.60
2023-05-23T23:01:46.450Z,58.70
2023-05-23T23:04:13.433Z,58.90
2023-05-23T23:06:43.137Z,59.00
2023-05-23T23:09:10.090Z,59.00
2023-05-23T23:11:36.990Z,59.00
2023-05-23T23:14:09.902Z,59.20
2023-05-23T23:16:38.011Z,59.40
2023-05-23T23:19:05.635Z,59.40
2023-05-23T23:21:33.019Z,59.50
2023-05-23T23:23:59.930Z,59.60
2023-05-23T23:26:29.839Z,59.70
2023-05-23T23:28:56.595Z,59.80
2023-05-23T23:31:23.503Z,59.90
2023-05-23T23:33:50.312Z,60.10
2023-05-23T23:36:17.107Z,60.20
2023-05-23T23:38:44.092Z,60.30
2023-05-23T23:41:11.022Z,60.30
2023-05-23T23:43:37.843Z,60.50
2023-05-23T23:46:04.776Z,60.50
2023-05-23T23:48:34.532Z,60.60
2023-05-23T23:51:01.636Z,60.80
2023-05-23T23:53:30.382Z,61.00
2023-05-23T23:55:57.105Z,61.20
2023-05-23T23:58:23.909Z,61.00
